Time;durP1;ratioP1;P1;durP2;ratioP2;P2;SDS_P1;SDS_P2;PMS_P1;PMS_P2;Temp;Humidity;BMP_temperature;BMP_pressure;BME280_temperature;BME280_humidity;BME280_pressure;Samples;Min_cycle;Max_cycle;Signal;HPM_P1;HPM_P2
2023/10/10 00:02:17;;;;;;;;;;;19.00;68.90;;;;;;5021003;28;20318;-76
2023/10/10 00:04:44;;;;;;;;;;;19.00;68.70;;;;;;5022537;28;19939;-74
2023/10/10 00:07:14;;;;;;;;;;;18.90;68.20;;;;;;5022764;28;19980;-77
2023/10/10 00:09:43;;;;;;;;;;;19.00;67.90;;;;;;5017981;28;20462;-76
2023/10/10 00:12:10;;;;;;;;;;;18.90;68.80;;;;;;5020574;28;19929;-76
2023/10/10 00:14:37;;;;;;;;;;;18.90;68.50;;;;;;5027785;28;19937;-76
2023/10/10 00:17:07;;;;;;;;;;;18.90;69.10;;;;;;5026064;28;20272;-76
2023/10/10 00:19:43;;;;;;;;;;;18.90;69.50;;;;;;5027744;28;19937;-74
2023/10/10 00:22:09;;;;;;;;;;;18.80;70.30;;;;;;5024361;28;20022;-75
2023/10/10 00:24:36;;;;;;;;;;;18.80;70.60;;;;;;5024813;28;19935;-76
2023/10/10 00:27:12;;;;;;;;;;;18.80;70.40;;;;;;5024462;28;19976;-76
2023/10/10 00:29:42;;;;;;;;;;;18.80;70.90;;;;;;5025308;28;19932;-74
2023/10/10 00:32:14;;;;;;;;;;;18.80;71.60;;;;;;5024054;28;19936;-75
2023/10/10 00:34:47;;;;;;;;;;;18.80;70.80;;;;;;5019803;28;19933;-76
2023/10/10 00:37:14;;;;;;;;;;;18.70;71.20;;;;;;5025815;28;19928;-75
2023/10/10 00:39:40;;;;;;;;;;;18.70;71.50;;;;;;5026736;28;20456;-74
2023/10/10 00:42:07;;;;;;;;;;;18.70;71.50;;;;;;5026259;28;20318;-76
2023/10/10 00:44:37;;;;;;;;;;;18.70;70.80;;;;;;5025122;28;19936;-76
2023/10/10 00:47:04;;;;;;;;;;;18.70;71.90;;;;;;5023720;28;20033;-75
2023/10/10 00:49:34;;;;;;;;;;;18.70;70.80;;;;;;5025535;28;19936;-76
2023/10/10 00:52:06;;;;;;;;;;;18.60;71.20;;;;;;5023587;28;19936;-76
2023/10/10 00:54:40;;;;;;;;;;;18.60;71.10;;;;;;5022220;28;20354;-76
2023/10/10 00:57:08;;;;;;;;;;;18.60;71.50;;;;;;5026229;28;20472;-76
2023/10/10 00:59:36;;;;;;;;;;;18.50;71.10;;;;;;5029272;28;19987;-76
2023/10/10 01:02:10;;;;;;;;;;;18.60;70.70;;;;;;5022326;28;19929;-76
2023/10/10 01:04:39;;;;;;;;;;;18.50;70.80;;;;;;5024497;28;19933;-76
2023/10/10 01:07:08;;;;;;;;;;;18.50;70.80;;;;;;5027187;28;20387;-76
2023/10/10 01:09:39;;;;;;;;;;;18.50;70.90;;;;;;5020614;28;19929;-76
2023/10/10 01:12:06;;;;;;;;;;;18.40;71.30;;;;;;5022467;28;19937;-76
2023/10/10 01:14:33;;;;;;;;;;;18.40;70.70;;;;;;5025324;28;20024;-75
2023/10/10 01:16:59;;;;;;;;;;;18.40;70.60;;;;;;5020639;28;19936;-76
2023/10/10 01:19:28;;;;;;;;;;;18.40;70.50;;;;;;5019956;28;19944;-76
2023/10/10 01:21:58;;;;;;;;;;;18.40;70.60;;;;;;5021092;28;19936;-74
2023/10/10 01:24:25;;;;;;;;;;;18.40;70.70;;;;;;5020946;28;20024;-75
2023/10/10 01:26:52;;;;;;;;;;;18.30;70.80;;;;;;5024790;28;19936;-75
2023/10/10 01:29:25;;;;;;;;;;;18.30;71.00;;;;;;5022258;28;20036;-75
2023/10/10 01:31:52;;;;;;;;;;;18.30;70.90;;;;;;5019534;28;19929;-75
2023/10/10 01:37:07;;;;;;;;;;;18.30;71.00;;;;;;5017248;28;20071;-76
2023/10/10 01:39:47;;;;;;;;;;;18.30;71.10;;;;;;5022363;28;19933;-76
2023/10/10 01:42:16;;;;;;;;;;;18.30;71.10;;;;;;5020522;28;19943;-75
2023/10/10 01:44:43;;;;;;;;;;;18.20;71.10;;;;;;5019872;28;19933;-76
2023/10/10 01:47:18;;;;;;;;;;;18.20;71.30;;;;;;5019380;28;20426;-75
2023/10/10 01:49:46;;;;;;;;;;;18.10;71.30;;;;;;5019428;28;20432;-76
2023/10/10 01:52:17;;;;;;;;;;;18.10;71.60;;;;;;5020853;28;19930;-76
2023/10/10 01:54:52;;;;;;;;;;;18.10;71.60;;;;;;5019836;28;19932;-76
2023/10/10 01:57:22;;;;;;;;;;;18.10;71.60;;;;;;5020367;28;20303;-74
2023/10/10 01:59:48;;;;;;;;;;;18.00;71.70;;;;;;5019310;28;19929;-75
2023/10/10 02:02:16;;;;;;;;;;;18.00;72.00;;;;;;5016261;28;19952;-76
2023/10/10 02:04:42;;;;;;;;;;;18.00;72.00;;;;;;5022497;28;19928;-75
2023/10/10 02:07:17;;;;;;;;;;;18.00;72.00;;;;;;5016846;28;19929;-76
2023/10/10 02:09:53;;;;;;;;;;;18.00;72.30;;;;;;5020456;28;19934;-76
2023/10/10 02:12:22;;;;;;;;;;;17.90;72.50;;;;;;5019418;28;19936;-76
2023/10/10 02:14:48;;;;;;;;;;;17.90;72.60;;;;;;5018371;28;19980;-74
2023/10/10 02:17:24;;;;;;;;;;;17.90;72.80;;;;;;5017070;28;19933;-76
2023/10/10 02:19:57;;;;;;;;;;;17.90;72.60;;;;;;5019710;28;19936;-75
2023/10/10 02:22:33;;;;;;;;;;;17.90;72.80;;;;;;5020057;28;19932;-75
2023/10/10 02:27:55;;;;;;;;;;;17.80;72.90;;;;;;5022405;28;20063;-75
2023/10/10 02:30:34;;;;;;;;;;;17.80;73.00;;;;;;5020764;28;19929;-75
2023/10/10 02:33:03;;;;;;;;;;;17.70;73.10;;;;;;5021429;28;19929;-75
2023/10/10 02:35:34;;;;;;;;;;;17.80;73.30;;;;;;5018455;28;19936;-76
2023/10/10 02:38:04;;;;;;;;;;;17.70;73.40;;;;;;5021141;28;19943;-73
2023/10/10 02:40:32;;;;;;;;;;;17.70;73.50;;;;;;5022649;28;19929;-75
2023/10/10 02:43:18;;;;;;;;;;;17.70;73.50;;;;;;5022401;28;20024;-75
2023/10/10 02:45:45;;;;;;;;;;;17.60;73.60;;;;;;5018985;28;19929;-75
2023/10/10 02:48:20;;;;;;;;;;;17.60;73.60;;;;;;5023635;28;20014;-76
2023/10/10 02:50:46;;;;;;;;;;;17.60;73.70;;;;;;5023219;28;20428;-76
2023/10/10 02:53:15;;;;;;;;;;;17.60;73.70;;;;;;5023455;28;19976;-76
2023/10/10 02:55:50;;;;;;;;;;;17.60;73.80;;;;;;5022902;28;20421;-76
2023/10/10 02:58:21;;;;;;;;;;;17.50;73.90;;;;;;5025004;28;20024;-75
2023/10/10 03:00:51;;;;;;;;;;;17.50;74.00;;;;;;5021691;28;20419;-76
2023/10/10 03:03:19;;;;;;;;;;;17.50;74.20;;;;;;5024820;28;20403;-75
2023/10/10 03:05:51;;;;;;;;;;;17.50;74.20;;;;;;5026222;28;20027;-75
2023/10/10 03:08:34;;;;;;;;;;;17.50;74.20;;;;;;5025466;28;20024;-75
2023/10/10 03:11:14;;;;;;;;;;;17.40;74.20;;;;;;5024795;28;19929;-74
2023/10/10 03:13:47;;;;;;;;;;;17.40;74.20;;;;;;5025358;28;20563;-74
2023/10/10 03:16:41;;;;;;;;;;;17.40;74.40;;;;;;5017118;28;19933;-75
2023/10/10 03:19:15;;;;;;;;;;;17.40;74.40;;;;;;5024251;28;19937;-76
2023/10/10 03:21:51;;;;;;;;;;;17.40;74.60;;;;;;5021060;28;20075;-76
2023/10/10 03:24:36;;;;;;;;;;;17.40;74.70;;;;;;5020679;28;19929;-75
2023/10/10 03:27:37;;;;;;;;;;;17.40;74.70;;;;;;5019732;28;20018;-75
2023/10/10 03:30:16;;;;;;;;;;;17.30;74.60;;;;;;5015155;28;19925;-75
2023/10/10 03:32:59;;;;;;;;;;;17.30;74.80;;;;;;5017959;28;19932;-76
2023/10/10 03:35:33;;;;;;;;;;;17.30;74.90;;;;;;5013890;28;19936;-75
2023/10/10 03:38:25;;;;;;;;;;;17.30;74.90;;;;;;5021202;28;19956;-75
2023/10/10 03:41:24;;;;;;;;;;;17.30;75.00;;;;;;5018847;28;20016;-75
2023/10/10 05:25:25;;;;;;;;;;;16.80;77.40;;;;;;5018526;28;19936;-75
2023/10/10 05:27:52;;;;;;;;;;;16.80;77.50;;;;;;5018510;28;19929;-75
2023/10/10 05:30:24;;;;;;;;;;;16.80;77.50;;;;;;5017436;28;19988;-75
2023/10/10 05:33:00;;;;;;;;;;;16.80;77.60;;;;;;5017643;28;20366;-75
2023/10/10 05:35:27;;;;;;;;;;;16.70;77.60;;;;;;5021957;28;19940;-76
2023/10/10 05:37:55;;;;;;;;;;;16.60;79.00;;;;;;5024719;28;20615;-76
2023/10/10 05:40:24;;;;;;;;;;;16.60;79.10;;;;;;5022837;28;19936;-75
2023/10/10 05:42:51;;;;;;;;;;;16.60;78.80;;;;;;5022873;28;20024;-75
2023/10/10 05:45:18;;;;;;;;;;;16.60;78.80;;;;;;5024628;28;20410;-75
2023/10/10 05:47:45;;;;;;;;;;;16.50;78.60;;;;;;5023602;28;19933;-74
2023/10/10 05:50:11;;;;;;;;;;;16.50;78.50;;;;;;5022423;28;19972;-75
2023/10/10 05:52:38;;;;;;;;;;;16.50;78.40;;;;;;5026275;28;19940;-76
2023/10/10 05:55:09;;;;;;;;;;;16.50;78.30;;;;;;5027181;28;19936;-76
2023/10/10 05:57:36;;;;;;;;;;;16.50;78.40;;;;;;5027049;28;20367;-76
2023/10/10 06:00:04;;;;;;;;;;;16.50;78.40;;;;;;5027580;28;20382;-76
2023/10/10 06:02:31;;;;;;;;;;;16.50;79.20;;;;;;5022991;28;20459;-76
2023/10/10 06:04:58;;;;;;;;;;;16.40;78.30;;;;;;5030632;28;19928;-76
2023/10/10 06:07:27;;;;;;;;;;;16.50;78.50;;;;;;5021092;28;19936;-75
2023/10/10 06:09:54;;;;;;;;;;;16.50;78.30;;;;;;5024588;28;20390;-76
2023/10/10 06:12:23;;;;;;;;;;;16.40;78.50;;;;;;5025722;28;20016;-75
2023/10/10 06:14:50;;;;;;;;;;;16.50;78.50;;;;;;5025574;28;19929;-76
2023/10/10 06:17:16;;;;;;;;;;;16.40;78.70;;;;;;5023584;28;19937;-76
2023/10/10 06:19:45;;;;;;;;;;;16.40;78.70;;;;;;5029466;28;19929;-75
2023/10/10 06:22:15;;;;;;;;;;;16.40;78.70;;;;;;5028296;28;19960;-75
2023/10/10 06:24:41;;;;;;;;;;;16.40;78.70;;;;;;5021909;28;19929;-74
2023/10/10 06:27:11;;;;;;;;;;;16.40;78.80;;;;;;5025037;28;19936;-76
2023/10/10 06:29:41;;;;;;;;;;;16.40;78.90;;;;;;5022101;28;19983;-74
2023/10/10 06:32:10;;;;;;;;;;;16.40;79.00;;;;;;5022833;28;19941;-75
2023/10/10 06:34:37;;;;;;;;;;;16.40;79.10;;;;;;5027592;28;19933;-75
2023/10/10 06:37:07;;;;;;;;;;;16.30;79.10;;;;;;5020864;28;19929;-75
2023/10/10 06:39:34;;;;;;;;;;;16.30;79.20;;;;;;5019300;28;19999;-75
2023/10/10 06:42:03;;;;;;;;;;;16.30;79.30;;;;;;5019445;28;19929;-76
2023/10/10 06:44:34;;;;;;;;;;;16.30;79.30;;;;;;5020528;28;19968;-75
2023/10/10 06:47:08;;;;;;;;;;;16.30;79.30;;;;;;5023578;28;20654;-75
2023/10/10 06:49:44;;;;;;;;;;;16.30;79.30;;;;;;5024026;28;19975;-75
2023/10/10 06:52:17;;;;;;;;;;;16.30;79.20;;;;;;5020099;28;20186;-76
2023/10/10 06:54:53;;;;;;;;;;;16.30;79.30;;;;;;5022263;28;20286;-75
2023/10/10 06:57:20;;;;;;;;;;;16.30;79.30;;;;;;5018890;28;19972;-76
2023/10/10 06:59:48;;;;;;;;;;;16.30;79.40;;;;;;5017324;28;19933;-74
2023/10/10 07:02:21;;;;;;;;;;;16.30;79.50;;;;;;5013250;28;19943;-76
2023/10/10 07:04:52;;;;;;;;;;;16.30;79.50;;;;;;5014855;28;19933;-74
2023/10/10 07:07:19;;;;;;;;;;;16.30;79.40;;;;;;5020623;28;19929;-76
2023/10/10 07:09:46;;;;;;;;;;;16.30;79.40;;;;;;5021255;28;20678;-75
2023/10/10 07:12:14;;;;;;;;;;;16.30;79.40;;;;;;5018090;28;19929;-74
2023/10/10 07:14:43;;;;;;;;;;;16.30;79.50;;;;;;5018163;28;20463;-76
2023/10/10 07:17:11;;;;;;;;;;;16.30;79.40;;;;;;5015188;28;20028;-75
2023/10/10 07:21:04;;;;;;;;;;;16.30;79.40;;;;;;5018355;28;19937;-76
2023/10/10 07:22:28;;;;;;;;;;;16.30;79.50;;;;;;5023876;28;20006;-76
2023/10/10 07:24:55;;;;;;;;;;;16.30;79.60;;;;;;5021106;28;20051;-75
2023/10/10 07:27:30;;;;;;;;;;;16.30;79.60;;;;;;5019440;28;19976;-75
2023/10/10 07:30:08;;;;;;;;;;;16.30;79.70;;;;;;5022437;28;20027;-75
2023/10/10 07:32:38;;;;;;;;;;;16.30;79.70;;;;;;5022979;28;19929;-75
2023/10/10 07:35:08;;;;;;;;;;;16.20;79.60;;;;;;5023020;28;19953;-75
2023/10/10 07:37:35;;;;;;;;;;;16.30;79.60;;;;;;5021757;28;20163;-76
2023/10/10 07:40:19;;;;;;;;;;;16.30;79.70;;;;;;5021140;28;19929;-75
2023/10/10 07:42:49;;;;;;;;;;;16.30;79.70;;;;;;5021481;28;19948;-75
2023/10/10 07:45:18;;;;;;;;;;;16.30;79.80;;;;;;5021276;28;19982;-75
2023/10/10 07:50:35;;;;;;;;;;;16.30;79.80;;;;;;5026321;28;20009;-76
2023/10/10 07:53:05;;;;;;;;;;;16.30;79.70;;;;;;5020744;28;19945;-76
2023/10/10 07:55:34;;;;;;;;;;;16.30;79.70;;;;;;5025014;28;19939;-76
2023/10/10 07:58:06;;;;;;;;;;;16.30;79.60;;;;;;5021664;28;20028;-76
2023/10/10 08:00:35;;;;;;;;;;;16.30;79.60;;;;;;5020526;28;20383;-76
2023/10/10 08:03:02;;;;;;;;;;;16.30;80.20;;;;;;5020597;28;19929;-76
2023/10/10 08:05:29;;;;;;;;;;;16.30;79.40;;;;;;5026408;28;19925;-75
2023/10/10 08:07:57;;;;;;;;;;;16.30;79.40;;;;;;5025007;28;20322;-76
2023/10/10 08:10:31;;;;;;;;;;;16.30;79.40;;;;;;5023999;28;19929;-76
2023/10/10 08:12:58;;;;;;;;;;;16.30;79.40;;;;;;5024710;28;19933;-75
2023/10/10 08:15:25;;;;;;;;;;;16.30;79.30;;;;;;5020706;28;20496;-74
2023/10/10 08:17:54;;;;;;;;;;;16.30;79.30;;;;;;5026964;28;20668;-75
2023/10/10 08:23:05;;;;;;;;;;;16.30;79.20;;;;;;5021661;28;20421;-75
2023/10/10 08:25:32;;;;;;;;;;;16.40;79.10;;;;;;5024976;28;19929;-75
2023/10/10 08:27:59;;;;;;;;;;;16.30;79.00;;;;;;5021154;28;19933;-74
2023/10/10 08:30:26;;;;;;;;;;;16.40;79.00;;;;;;5021298;28;19933;-75
2023/10/10 08:32:53;;;;;;;;;;;16.40;79.00;;;;;;5021193;28;19929;-75
2023/10/10 08:35:21;;;;;;;;;;;16.40;79.00;;;;;;5025148;28;19937;-76
2023/10/10 08:37:48;;;;;;;;;;;16.40;79.00;;;;;;5024210;28;19929;-76
2023/10/10 08:40:19;;;;;;;;;;;16.40;79.30;;;;;;5022469;28;19933;-75
2023/10/10 08:42:46;;;;;;;;;;;16.50;79.30;;;;;;5021176;28;19935;-75
2023/10/10 08:45:22;;;;;;;;;;;16.50;79.30;;;;;;5018261;28;19933;-75
2023/10/10 08:47:49;;;;;;;;;;;16.50;79.30;;;;;;5025246;28;19933;-76
2023/10/10 08:50:16;;;;;;;;;;;16.50;79.40;;;;;;5023300;28;19929;-76
2023/10/10 08:52:43;;;;;;;;;;;16.50;79.30;;;;;;5022230;28;19945;-76
2023/10/10 08:55:11;;;;;;;;;;;16.60;79.30;;;;;;5022515;28;19929;-76
2023/10/10 08:57:39;;;;;;;;;;;16.60;79.20;;;;;;5027071;28;19933;-75
2023/10/10 09:00:11;;;;;;;;;;;16.60;79.20;;;;;;5019807;28;19936;-75
2023/10/10 09:02:39;;;;;;;;;;;16.60;79.10;;;;;;5013691;28;20576;-76
2023/10/10 09:05:09;;;;;;;;;;;16.60;79.20;;;;;;5023586;28;20023;-77
2023/10/10 09:07:39;;;;;;;;;;;16.70;79.10;;;;;;5017416;28;19936;-77
2023/10/10 09:10:13;;;;;;;;;;;16.70;79.00;;;;;;5022878;28;20124;-76
2023/10/10 09:12:52;;;;;;;;;;;16.70;79.00;;;;;;5022905;28;19929;-77
2023/10/10 09:15:19;;;;;;;;;;;16.70;78.90;;;;;;5023276;28;19956;-76
2023/10/10 09:17:47;;;;;;;;;;;16.80;78.80;;;;;;5025810;28;19929;-76
2023/10/10 09:20:23;;;;;;;;;;;16.80;78.70;;;;;;5022607;28;19985;-77
2023/10/10 09:22:52;;;;;;;;;;;16.80;78.60;;;;;;5019930;28;19961;-77
2023/10/10 09:25:20;;;;;;;;;;;16.90;78.60;;;;;;5025788;28;19976;-76
2023/10/10 09:28:03;;;;;;;;;;;16.90;78.50;;;;;;5029039;28;19925;-76
2023/10/10 09:30:34;;;;;;;;;;;17.00;78.40;;;;;;5019988;28;19929;-76
2023/10/10 09:33:13;;;;;;;;;;;17.00;78.20;;;;;;5020592;28;19940;-76
2023/10/10 09:35:40;;;;;;;;;;;17.10;78.20;;;;;;5019775;28;19932;-77
2023/10/10 09:38:12;;;;;;;;;;;17.10;78.70;;;;;;5016903;28;19929;-76
2023/10/10 09:40:40;;;;;;;;;;;17.10;77.80;;;;;;5024151;28;20371;-76
2023/10/10 09:43:13;;;;;;;;;;;17.20;77.70;;;;;;5025802;28;19929;-77
2023/10/10 09:45:55;;;;;;;;;;;17.20;77.50;;;;;;5023082;28;19983;-77
2023/10/10 09:51:16;;;;;;;;;;;17.30;77.30;;;;;;5020257;28;19960;-76
2023/10/10 09:53:46;;;;;;;;;;;17.30;77.10;;;;;;5029172;28;20019;-75
2023/10/10 09:56:15;;;;;;;;;;;17.40;77.00;;;;;;5035737;28;19967;-76
2023/10/10 09:58:44;;;;;;;;;;;17.50;76.90;;;;;;5021216;28;19951;-77
2023/10/10 10:01:23;;;;;;;;;;;17.40;76.70;;;;;;5031389;28;19963;-79
2023/10/10 10:03:55;;;;;;;;;;;17.60;76.70;;;;;;5030177;28;20023;-79
2023/10/10 10:06:37;;;;;;;;;;;17.60;76.60;;;;;;5029970;28;19936;-79
2023/10/10 10:09:17;;;;;;;;;;;17.70;76.60;;;;;;5022195;28;19933;-79
2023/10/10 10:11:51;;;;;;;;;;;17.70;76.60;;;;;;5021786;28;19935;-77
2023/10/10 10:14:25;;;;;;;;;;;17.80;76.90;;;;;;5017876;28;20391;-78
2023/10/10 10:16:55;;;;;;;;;;;17.80;76.70;;;;;;5019838;28;19925;-78
2023/10/10 10:19:27;;;;;;;;;;;17.90;76.70;;;;;;5026015;28;19925;-78
2023/10/10 10:22:07;;;;;;;;;;;18.00;76.60;;;;;;5021595;28;19933;-77
2023/10/10 10:24:52;;;;;;;;;;;18.00;76.40;;;;;;5022405;28;20505;-77
2023/10/10 10:27:24;;;;;;;;;;;18.10;76.20;;;;;;5022298;28;19929;-76
2023/10/10 10:29:58;;;;;;;;;;;18.20;76.10;;;;;;5022517;28;20019;-77
2023/10/10 10:32:24;;;;;;;;;;;18.20;75.70;;;;;;5024432;28;19968;-76
2023/10/10 10:34:56;;;;;;;;;;;18.30;75.60;;;;;;5021399;28;19941;-76
2023/10/10 10:37:23;;;;;;;;;;;18.40;75.60;;;;;;5020433;28;20377;-76
2023/10/10 10:42:37;;;;;;;;;;;18.50;75.60;;;;;;5026753;28;19925;-78
2023/10/10 10:45:24;;;;;;;;;;;18.60;75.40;;;;;;5024683;28;19936;-77
2023/10/10 10:47:59;;;;;;;;;;;18.70;75.40;;;;;;5026221;28;20704;-78
2023/10/10 10:50:42;;;;;;;;;;;18.70;75.30;;;;;;5024973;28;19929;-78
2023/10/10 10:53:20;;;;;;;;;;;18.80;75.00;;;;;;5021322;28;19929;-79
2023/10/10 10:55:59;;;;;;;;;;;18.80;74.80;;;;;;5023927;28;20626;-78
2023/10/10 10:58:26;;;;;;;;;;;18.90;74.80;;;;;;5024552;28;19940;-78
2023/10/10 11:01:07;;;;;;;;;;;18.90;75.50;;;;;;5024437;28;19942;-78
2023/10/10 11:03:36;;;;;;;;;;;19.00;74.70;;;;;;5020086;28;19929;-72
2023/10/10 11:06:06;;;;;;;;;;;19.00;74.50;;;;;;5024076;28;19936;-72
2023/10/10 11:11:25;;;;;;;;;;;19.00;74.40;;;;;;5012049;28;19938;-72
2023/10/10 11:13:54;;;;;;;;;;;19.10;74.40;;;;;;5020172;28;19933;-72
2023/10/10 11:16:23;;;;;;;;;;;19.10;74.20;;;;;;5017089;28;19933;-72
2023/10/10 11:18:57;;;;;;;;;;;19.10;74.00;;;;;;5018536;28;19986;-72
2023/10/10 11:21:27;;;;;;;;;;;19.20;74.30;;;;;;5019002;28;19972;-72
2023/10/10 11:23:57;;;;;;;;;;;19.20;73.90;;;;;;5017066;28;20013;-72
2023/10/10 11:26:24;;;;;;;;;;;19.30;73.80;;;;;;5018717;28;19928;-71
2023/10/10 11:28:50;;;;;;;;;;;19.30;73.60;;;;;;5019169;28;19944;-72
2023/10/10 11:31:23;;;;;;;;;;;19.30;73.50;;;;;;5017162;28;19936;-71
2023/10/10 11:33:55;;;;;;;;;;;19.40;73.60;;;;;;5018383;28;19937;-72
2023/10/10 11:36:37;;;;;;;;;;;19.40;73.30;;;;;;5021886;28;19934;-71
2023/10/10 11:39:16;;;;;;;;;;;19.50;73.50;;;;;;5017922;28;19934;-73
2023/10/10 11:41:45;;;;;;;;;;;19.50;73.20;;;;;;5019645;28;19929;-72
2023/10/10 11:44:17;;;;;;;;;;;19.60;72.80;;;;;;5018950;28;19979;-71
2023/10/10 11:46:44;;;;;;;;;;;19.50;72.70;;;;;;5022419;28;20020;-71
2023/10/10 11:49:15;;;;;;;;;;;19.60;73.00;;;;;;5017928;28;19929;-72
2023/10/10 11:51:43;;;;;;;;;;;19.60;72.80;;;;;;5022523;28;19929;-72
2023/10/10 11:54:09;;;;;;;;;;;19.60;72.30;;;;;;5016812;28;19933;-72
2023/10/10 11:56:36;;;;;;;;;;;19.60;72.50;;;;;;5016631;28;19940;-72
2023/10/10 11:59:09;;;;;;;;;;;19.70;72.30;;;;;;5017032;28;19929;-70
2023/10/10 12:01:51;;;;;;;;;;;19.70;72.40;;;;;;5021313;28;19935;-71
2023/10/10 12:04:31;;;;;;;;;;;19.70;72.50;;;;;;5019532;28;19995;-71
2023/10/10 12:07:00;;;;;;;;;;;19.80;72.50;;;;;;5018150;28;20406;-72
2023/10/10 12:09:27;;;;;;;;;;;19.80;72.00;;;;;;5021872;28;19929;-70
2023/10/10 12:11:58;;;;;;;;;;;19.90;71.90;;;;;;5025547;28;19933;-73
2023/10/10 12:14:29;;;;;;;;;;;19.80;71.50;;;;;;5022004;28;20654;-71
2023/10/10 12:16:57;;;;;;;;;;;19.90;71.80;;;;;;5020746;28;19948;-72
2023/10/10 12:19:25;;;;;;;;;;;19.90;71.00;;;;;;5019067;28;20373;-71
2023/10/10 12:21:52;;;;;;;;;;;20.00;71.50;;;;;;5026058;28;19933;-71
2023/10/10 12:24:20;;;;;;;;;;;20.00;71.20;;;;;;5024214;28;20028;-71
2023/10/10 12:26:46;;;;;;;;;;;20.00;71.30;;;;;;5022589;28;19941;-72
2023/10/10 12:29:14;;;;;;;;;;;20.00;71.30;;;;;;5024616;28;19933;-72
2023/10/10 12:31:41;;;;;;;;;;;20.00;70.70;;;;;;5027081;28;20035;-71
2023/10/10 12:34:09;;;;;;;;;;;20.00;69.80;;;;;;5024416;28;20088;-71
2023/10/10 12:36:36;;;;;;;;;;;20.10;70.30;;;;;;5026386;28;19944;-78
2023/10/10 12:39:04;;;;;;;;;;;20.10;70.50;;;;;;5030049;28;19968;-79
2023/10/10 12:41:43;;;;;;;;;;;20.10;70.50;;;;;;5028640;28;19929;-78
2023/10/10 12:44:10;;;;;;;;;;;20.20;70.40;;;;;;5024161;28;21876;-78
2023/10/10 12:46:35;;;;;;;;;;;20.20;70.50;;;;;;5027670;28;19929;-78
2023/10/10 12:49:02;;;;;;;;;;;20.20;70.40;;;;;;5027873;28;19932;-79
2023/10/10 12:51:30;;;;;;;;;;;20.20;70.00;;;;;;5027724;28;19929;-78
2023/10/10 12:54:03;;;;;;;;;;;20.40;70.20;;;;;;5025505;28;19929;-79
2023/10/10 12:56:30;;;;;;;;;;;20.30;70.00;;;;;;5027027;28;19940;-79
2023/10/10 12:59:03;;;;;;;;;;;20.40;70.00;;;;;;5026553;28;19930;-78
2023/10/10 13:01:35;;;;;;;;;;;20.40;69.80;;;;;;5026090;28;19933;-79
2023/10/10 13:04:07;;;;;;;;;;;20.40;69.10;;;;;;5033095;28;20317;-78
2023/10/10 13:06:35;;;;;;;;;;;20.40;68.10;;;;;;5032572;28;19937;-79
2023/10/10 13:09:05;;;;;;;;;;;20.50;69.10;;;;;;5030725;28;19936;-78
2023/10/10 13:11:35;;;;;;;;;;;20.50;68.70;;;;;;5026550;28;19980;-78
2023/10/10 13:14:10;;;;;;;;;;;20.50;68.40;;;;;;5020940;28;20056;-77
2023/10/10 13:19:20;;;;;;;;;;;20.50;68.70;;;;;;5019322;28;19936;-75
2023/10/10 13:21:48;;;;;;;;;;;20.60;68.20;;;;;;5022292;28;19933;-74
2023/10/10 13:24:15;;;;;;;;;;;20.60;67.60;;;;;;5018216;28;19929;-74
2023/10/10 13:26:44;;;;;;;;;;;20.60;65.80;;;;;;5021661;28;20393;-73
2023/10/10 13:29:13;;;;;;;;;;;20.70;65.40;;;;;;5024472;28;19933;-74
2023/10/10 13:31:41;;;;;;;;;;;20.80;64.70;;;;;;5021938;28;20686;-75
2023/10/10 13:34:07;;;;;;;;;;;20.80;64.30;;;;;;5019192;28;19939;-73
2023/10/10 13:36:34;;;;;;;;;;;20.90;63.40;;;;;;5020699;28;19940;-73
2023/10/10 13:39:05;;;;;;;;;;;20.90;62.70;;;;;;5026117;28;19929;-75
2023/10/10 13:41:35;;;;;;;;;;;21.00;62.20;;;;;;5021586;28;19929;-75
2023/10/10 13:44:03;;;;;;;;;;;21.00;62.10;;;;;;5020519;28;19932;-76
2023/10/10 13:46:34;;;;;;;;;;;21.10;62.10;;;;;;5017932;28;20393;-75
2023/10/10 13:49:03;;;;;;;;;;;21.10;61.40;;;;;;5018308;28;19952;-75
2023/10/10 13:51:39;;;;;;;;;;;21.10;61.40;;;;;;5017769;28;20043;-75
2023/10/10 13:54:06;;;;;;;;;;;21.20;60.80;;;;;;5017531;28;19933;-76
2023/10/10 13:56:32;;;;;;;;;;;21.20;61.50;;;;;;5015804;28;19929;-76
2023/10/10 13:59:00;;;;;;;;;;;21.20;61.80;;;;;;5022638;28;19936;-75
2023/10/10 14:01:29;;;;;;;;;;;21.30;61.40;;;;;;5023517;28;19929;-75
2023/10/10 14:04:04;;;;;;;;;;;21.30;60.80;;;;;;5022753;28;19929;-75
2023/10/10 14:06:45;;;;;;;;;;;21.30;60.50;;;;;;5024269;28;19940;-75
2023/10/10 14:09:11;;;;;;;;;;;21.30;60.90;;;;;;5022302;28;20409;-75
2023/10/10 14:11:38;;;;;;;;;;;21.40;60.60;;;;;;5022548;28;19929;-75
2023/10/10 14:14:06;;;;;;;;;;;21.40;60.90;;;;;;5022825;28;20035;-75
2023/10/10 14:16:32;;;;;;;;;;;21.40;61.40;;;;;;5026246;28;19936;-75
2023/10/10 14:19:01;;;;;;;;;;;21.50;61.50;;;;;;5022539;28;20717;-76
2023/10/10 14:21:28;;;;;;;;;;;21.50;61.60;;;;;;5025559;28;19929;-75
2023/10/10 14:24:04;;;;;;;;;;;21.50;61.60;;;;;;5018577;28;20395;-76
2023/10/10 14:26:33;;;;;;;;;;;21.50;61.20;;;;;;5026017;28;19933;-76
2023/10/10 14:29:04;;;;;;;;;;;21.50;61.70;;;;;;5023614;28;19956;-75
2023/10/10 14:31:32;;;;;;;;;;;21.60;61.10;;;;;;5025120;28;19968;-75
2023/10/10 14:34:00;;;;;;;;;;;21.60;61.20;;;;;;5023902;28;20016;-76
2023/10/10 14:36:28;;;;;;;;;;;21.60;61.70;;;;;;5024585;28;19936;-76
2023/10/10 14:38:57;;;;;;;;;;;21.60;61.20;;;;;;5019563;28;19940;-76
2023/10/10 14:41:24;;;;;;;;;;;21.60;61.90;;;;;;5021396;28;19937;-75
2023/10/10 14:43:51;;;;;;;;;;;21.60;62.00;;;;;;5020634;28;19929;-75
2023/10/10 14:46:22;;;;;;;;;;;21.60;62.10;;;;;;5019498;28;19936;-75
2023/10/10 14:48:49;;;;;;;;;;;21.60;62.10;;;;;;5024365;28;19964;-75
2023/10/10 14:51:17;;;;;;;;;;;21.60;62.40;;;;;;5019183;28;20272;-75
2023/10/10 14:53:51;;;;;;;;;;;21.60;62.60;;;;;;5023306;28;19929;-75
2023/10/10 14:56:22;;;;;;;;;;;21.60;62.70;;;;;;5022700;28;19936;-75
2023/10/10 14:58:49;;;;;;;;;;;21.60;62.80;;;;;;5019014;28;19929;-75
2023/10/10 15:01:20;;;;;;;;;;;21.60;63.10;;;;;;5019949;28;20020;-76
2023/10/10 15:03:47;;;;;;;;;;;21.60;63.30;;;;;;5024389;28;20515;-74
2023/10/10 15:06:15;;;;;;;;;;;21.60;63.40;;;;;;5024284;28;19935;-75
2023/10/10 15:08:43;;;;;;;;;;;21.60;63.20;;;;;;5025485;28;19944;-75
2023/10/10 15:11:12;;;;;;;;;;;21.60;63.30;;;;;;5023002;28;20161;-75
2023/10/10 15:13:41;;;;;;;;;;;21.50;63.10;;;;;;5018850;28;19991;-76
2023/10/10 15:16:10;;;;;;;;;;;21.50;63.20;;;;;;5019409;28;19964;-75
2023/10/10 15:18:36;;;;;;;;;;;21.50;63.40;;;;;;5022772;28;19946;-75
2023/10/10 15:21:03;;;;;;;;;;;21.50;63.10;;;;;;5027538;28;20067;-75
2023/10/10 15:23:30;;;;;;;;;;;21.50;63.30;;;;;;5018605;28;20000;-75
2023/10/10 15:25:56;;;;;;;;;;;21.50;63.60;;;;;;5027251;28;19939;-75
2023/10/10 15:28:25;;;;;;;;;;;21.50;63.80;;;;;;5024253;28;19951;-74
2023/10/10 15:30:51;;;;;;;;;;;21.50;64.10;;;;;;5021696;28;20447;-75
2023/10/10 15:33:18;;;;;;;;;;;21.50;64.50;;;;;;5023204;28;19963;-75
2023/10/10 15:35:46;;;;;;;;;;;21.40;64.40;;;;;;5022049;28;20375;-75
2023/10/10 15:38:13;;;;;;;;;;;21.40;64.40;;;;;;5024648;28;19940;-75
2023/10/10 15:40:40;;;;;;;;;;;21.40;64.10;;;;;;5025360;28;19943;-75
2023/10/10 15:43:11;;;;;;;;;;;21.40;64.50;;;;;;5024509;28;19960;-75
2023/10/10 15:45:45;;;;;;;;;;;21.40;64.60;;;;;;5026533;28;19962;-75
2023/10/10 15:48:21;;;;;;;;;;;21.40;64.70;;;;;;5026293;28;19981;-75
2023/10/10 15:50:50;;;;;;;;;;;21.30;64.90;;;;;;5029646;28;20769;-75
2023/10/10 15:53:18;;;;;;;;;;;21.30;65.30;;;;;;5023086;28;20017;-74
2023/10/10 15:55:44;;;;;;;;;;;21.40;65.40;;;;;;5026367;28;19945;-75
2023/10/10 15:58:11;;;;;;;;;;;21.30;65.60;;;;;;5026854;28;19940;-75
2023/10/10 16:00:39;;;;;;;;;;;21.30;66.00;;;;;;5028572;28;19955;-74
2023/10/10 16:03:07;;;;;;;;;;;21.30;66.30;;;;;;5027419;28;19992;-74
2023/10/10 16:05:39;;;;;;;;;;;21.30;66.00;;;;;;5028199;28;20579;-74
2023/10/10 16:08:05;;;;;;;;;;;21.20;66.60;;;;;;5030794;28;19989;-75
2023/10/10 16:10:32;;;;;;;;;;;21.20;66.70;;;;;;5017958;28;19964;-76
2023/10/10 16:12:58;;;;;;;;;;;21.30;66.10;;;;;;5020107;28;19967;-76
2023/10/10 16:15:25;;;;;;;;;;;21.30;66.00;;;;;;5018288;28;19940;-77
2023/10/10 16:17:52;;;;;;;;;;;21.40;66.00;;;;;;5026727;28;19933;-76
2023/10/10 16:20:22;;;;;;;;;;;21.40;65.90;;;;;;5020698;28;20056;-76
2023/10/10 16:22:48;;;;;;;;;;;21.50;65.90;;;;;;5021339;28;19932;-77
2023/10/10 16:25:15;;;;;;;;;;;21.50;65.80;;;;;;5018373;28;19929;-76
2023/10/10 16:27:42;;;;;;;;;;;21.60;65.70;;;;;;5021373;28;19933;-76
2023/10/10 16:30:10;;;;;;;;;;;21.70;65.60;;;;;;5019411;28;19933;-75
2023/10/10 16:32:37;;;;;;;;;;;21.70;65.40;;;;;;5024021;28;20004;-75
2023/10/10 16:35:05;;;;;;;;;;;21.70;65.30;;;;;;5021549;28;20448;-77
2023/10/10 16:37:36;;;;;;;;;;;21.80;65.40;;;;;;5023345;28;19940;-76
2023/10/10 16:40:04;;;;;;;;;;;21.80;65.40;;;;;;5015667;28;19959;-75